sensor_id;sensor_type;location;lat;lon;timestamp;P1;durP1;ratioP1;P2;durP2;ratioP2
42036;SDS011;30340;52.004;5.908;2023-07-02T00:00:57;8.52;;;4.13;;
42036;SDS011;30340;52.004;5.908;2023-07-02T00:03:24;5.97;;;3.50;;
42036;SDS011;30340;52.004;5.908;2023-07-02T00:05:49;7.22;;;3.25;;
42036;SDS011;30340;52.004;5.908;2023-07-02T00:08:18;5.20;;;3.03;;
42036;SDS011;30340;52.004;5.908;2023-07-02T00:10:43;9.32;;;3.53;;
42036;SDS011;30340;52.004;5.908;2023-07-02T00:13:09;7.50;;;3.88;;
42036;SDS011;30340;52.004;5.908;2023-07-02T00:15:35;8.55;;;3.83;;
42036;SDS011;30340;52.004;5.908;2023-07-02T00:18:00;9.38;;;4.68;;
42036;SDS011;30340;52.004;5.908;2023-07-02T00:20:26;10.48;;;4.07;;
42036;SDS011;30340;52.004;5.908;2023-07-02T00:22:51;5.07;;;3.40;;
42036;SDS011;30340;52.004;5.908;2023-07-02T00:25:19;8.63;;;4.88;;
42036;SDS011;30340;52.004;5.908;2023-07-02T00:27:45;9.23;;;4.38;;
42036;SDS011;30340;52.004;5.908;2023-07-02T00:30:11;8.10;;;4.60;;
42036;SDS011;30340;52.004;5.908;2023-07-02T00:32:36;11.32;;;5.20;;
42036;SDS011;30340;52.004;5.908;2023-07-02T00:35:02;8.90;;;4.88;;
42036;SDS011;30340;52.004;5.908;2023-07-02T00:37:28;8.10;;;4.70;;
42036;SDS011;30340;52.004;5.908;2023-07-02T00:39:53;8.88;;;4.50;;
42036;SDS011;30340;52.004;5.908;2023-07-02T00:42:19;13.93;;;6.03;;
42036;SDS011;30340;52.004;5.908;2023-07-02T00:44:45;9.05;;;4.75;;
42036;SDS011;30340;52.004;5.908;2023-07-02T00:47:11;10.43;;;5.22;;
42036;SDS011;30340;52.004;5.908;2023-07-02T00:49:38;9.40;;;5.20;;
42036;SDS011;30340;52.004;5.908;2023-07-02T00:52:05;10.23;;;5.57;;
42036;SDS011;30340;52.004;5.908;2023-07-02T00:54:31;9.35;;;4.70;;
42036;SDS011;30340;52.004;5.908;2023-07-02T00:56:57;11.88;;;5.22;;
42036;SDS011;30340;52.004;5.908;2023-07-02T00:59:27;8.57;;;4.50;;
42036;SDS011;30340;52.004;5.908;2023-07-02T01:01:54;9.07;;;4.93;;
42036;SDS011;30340;52.004;5.908;2023-07-02T01:04:22;7.88;;;4.57;;
42036;SDS011;30340;52.004;5.908;2023-07-02T01:06:52;9.90;;;4.68;;
42036;SDS011;30340;52.004;5.908;2023-07-02T01:09:22;9.43;;;5.10;;
42036;SDS011;30340;52.004;5.908;2023-07-02T01:11:58;11.20;;;5.60;;
42036;SDS011;30340;52.004;5.908;2023-07-02T01:15:07;8.50;;;5.18;;
42036;SDS011;30340;52.004;5.908;2023-07-02T01:17:16;7.68;;;4.65;;
42036;SDS011;30340;52.004;5.908;2023-07-02T01:22:22;10.15;;;5.10;;
42036;SDS011;30340;52.004;5.908;2023-07-02T01:24:50;9.15;;;4.78;;
42036;SDS011;30340;52.004;5.908;2023-07-02T01:27:16;8.02;;;5.07;;
42036;SDS011;30340;52.004;5.908;2023-07-02T01:29:42;9.15;;;4.70;;
42036;SDS011;30340;52.004;5.908;2023-07-02T01:32:10;8.20;;;4.68;;
42036;SDS011;30340;52.004;5.908;2023-07-02T01:34:36;13.27;;;5.78;;
42036;SDS011;30340;52.004;5.908;2023-07-02T01:37:02;10.73;;;5.40;;
42036;SDS011;30340;52.004;5.908;2023-07-02T01:39:29;8.63;;;4.80;;
42036;SDS011;30340;52.004;5.908;2023-07-02T01:41:55;11.02;;;5.60;;
42036;SDS011;30340;52.004;5.908;2023-07-02T01:44:31;7.97;;;4.90;;
42036;SDS011;30340;52.004;5.908;2023-07-02T01:46:57;11.25;;;4.95;;
42036;SDS011;30340;52.004;5.908;2023-07-02T01:49:24;8.30;;;4.70;;
42036;SDS011;30340;52.004;5.908;2023-07-02T01:51:53;7.93;;;4.50;;
42036;SDS011;30340;52.004;5.908;2023-07-02T01:54:20;8.05;;;4.57;;
42036;SDS011;30340;52.004;5.908;2023-07-02T01:56:47;10.73;;;5.47;;
42036;SDS011;30340;52.004;5.908;2023-07-02T01:59:13;11.23;;;6.40;;
42036;SDS011;30340;52.004;5.908;2023-07-02T02:01:39;9.73;;;5.30;;
42036;SDS011;30340;52.004;5.908;2023-07-02T02:04:06;8.35;;;4.40;;
42036;SDS011;30340;52.004;5.908;2023-07-02T02:06:32;8.75;;;5.25;;
42036;SDS011;30340;52.004;5.908;2023-07-02T02:08:58;8.77;;;5.03;;
42036;SDS011;30340;52.004;5.908;2023-07-02T02:11:23;8.75;;;4.75;;
42036;SDS011;30340;52.004;5.908;2023-07-02T02:13:49;9.27;;;5.07;;
42036;SDS011;30340;52.004;5.908;2023-07-02T02:16:15;9.07;;;4.68;;
42036;SDS011;30340;52.004;5.908;2023-07-02T02:18:40;10.35;;;5.45;;
42036;SDS011;30340;52.004;5.908;2023-07-02T02:21:06;12.27;;;5.88;;
42036;SDS011;30340;52.004;5.908;2023-07-02T02:23:32;10.52;;;5.00;;
42036;SDS011;30340;52.004;5.908;2023-07-02T02:25:57;12.05;;;5.57;;
42036;SDS011;30340;52.004;5.908;2023-07-02T02:28:23;9.93;;;5.60;;
42036;SDS011;30340;52.004;5.908;2023-07-02T02:30:48;8.50;;;4.97;;
42036;SDS011;30340;52.004;5.908;2023-07-02T02:33:14;10.35;;;5.13;;
42036;SDS011;30340;52.004;5.908;2023-07-02T02:35:39;9.15;;;5.13;;
42036;SDS011;30340;52.004;5.908;2023-07-02T02:38:05;12.25;;;5.72;;
42036;SDS011;30340;52.004;5.908;2023-07-02T02:40:30;10.30;;;5.07;;
42036;SDS011;30340;52.004;5.908;2023-07-02T02:42:56;9.02;;;5.32;;
42036;SDS011;30340;52.004;5.908;2023-07-02T02:45:21;9.27;;;5.15;;
42036;SDS011;30340;52.004;5.908;2023-07-02T02:47:47;9.02;;;5.13;;
42036;SDS011;30340;52.004;5.908;2023-07-02T02:50:13;10.55;;;5.35;;
42036;SDS011;30340;52.004;5.908;2023-07-02T02:52:39;10.25;;;5.28;;
42036;SDS011;30340;52.004;5.908;2023-07-02T02:55:05;12.40;;;5.80;;
42036;SDS011;30340;52.004;5.908;2023-07-02T02:57:32;12.48;;;6.53;;
42036;SDS011;30340;52.004;5.908;2023-07-02T02:59:58;11.18;;;4.95;;
42036;SDS011;30340;52.004;5.908;2023-07-02T03:02:24;10.38;;;5.40;;
42036;SDS011;30340;52.004;5.908;2023-07-02T03:04:49;11.80;;;5.03;;
42036;SDS011;30340;52.004;5.908;2023-07-02T03:07:15;9.15;;;5.07;;
42036;SDS011;30340;52.004;5.908;2023-07-02T03:09:41;12.23;;;5.80;;
42036;SDS011;30340;52.004;5.908;2023-07-02T03:12:06;10.90;;;5.28;;
42036;SDS011;30340;52.004;5.908;2023-07-02T03:14:32;11.07;;;5.60;;
42036;SDS011;30340;52.004;5.908;2023-07-02T03:16:58;11.32;;;5.90;;
42036;SDS011;30340;52.004;5.908;2023-07-02T03:19:24;10.02;;;5.60;;
42036;SDS011;30340;52.004;5.908;2023-07-02T03:21:49;10.55;;;5.05;;
42036;SDS011;30340;52.004;5.908;2023-07-02T03:24:15;10.65;;;5.50;;
42036;SDS011;30340;52.004;5.908;2023-07-02T03:26:41;10.18;;;5.47;;
42036;SDS011;30340;52.004;5.908;2023-07-02T03:29:07;10.00;;;5.57;;
42036;SDS011;30340;52.004;5.908;2023-07-02T03:31:33;11.93;;;5.88;;
42036;SDS011;30340;52.004;5.908;2023-07-02T03:34:09;11.60;;;5.95;;
42036;SDS011;30340;52.004;5.908;2023-07-02T03:36:38;9.32;;;4.95;;
42036;SDS011;30340;52.004;5.908;2023-07-02T03:39:03;12.98;;;6.75;;
42036;SDS011;30340;52.004;5.908;2023-07-02T03:41:29;11.88;;;6.35;;
42036;SDS011;30340;52.004;5.908;2023-07-02T03:43:55;12.57;;;5.35;;
42036;SDS011;30340;52.004;5.908;2023-07-02T03:46:21;10.60;;;5.47;;
42036;SDS011;30340;52.004;5.908;2023-07-02T03:48:46;16.20;;;6.03;;
42036;SDS011;30340;52.004;5.908;2023-07-02T03:51:12;11.40;;;5.88;;
42036;SDS011;30340;52.004;5.908;2023-07-02T03:53:39;11.82;;;5.82;;
42036;SDS011;30340;52.004;5.908;2023-07-02T03:56:05;11.48;;;5.40;;
42036;SDS011;30340;52.004;5.908;2023-07-02T03:58:30;11.50;;;5.93;;
42036;SDS011;30340;52.004;5.908;2023-07-02T04:00:56;12.43;;;5.78;;
42036;SDS011;30340;52.004;5.908;2023-07-02T04:03:21;9.90;;;5.40;;
42036;SDS011;30340;52.004;5.908;2023-07-02T04:05:47;9.25;;;5.57;;
42036;SDS011;30340;52.004;5.908;2023-07-02T04:08:13;10.90;;;5.70;;
42036;SDS011;30340;52.004;5.908;2023-07-02T04:10:40;13.18;;;5.82;;
42036;SDS011;30340;52.004;5.908;2023-07-02T04:13:05;11.15;;;5.88;;
42036;SDS011;30340;52.004;5.908;2023-07-02T04:15:31;10.23;;;5.68;;
42036;SDS011;30340;52.004;5.908;2023-07-02T04:17:57;10.63;;;5.40;;
42036;SDS011;30340;52.004;5.908;2023-07-02T04:20:22;12.85;;;6.20;;
42036;SDS011;30340;52.004;5.908;2023-07-02T04:22:48;12.35;;;6.03;;
42036;SDS011;30340;52.004;5.908;2023-07-02T04:25:14;12.80;;;5.95;;
42036;SDS011;30340;52.004;5.908;2023-07-02T04:27:43;13.43;;;6.40;;
42036;SDS011;30340;52.004;5.908;2023-07-02T04:30:09;12.52;;;5.88;;
42036;SDS011;30340;52.004;5.908;2023-07-02T04:32:36;10.32;;;5.25;;
42036;SDS011;30340;52.004;5.908;2023-07-02T04:35:06;10.68;;;5.32;;
42036;SDS011;30340;52.004;5.908;2023-07-02T04:37:32;9.75;;;5.13;;
42036;SDS011;30340;52.004;5.908;2023-07-02T04:39:58;14.32;;;6.20;;
42036;SDS011;30340;52.004;5.908;2023-07-02T04:42:25;11.75;;;5.80;;
42036;SDS011;30340;52.004;5.908;2023-07-02T04:44:56;11.40;;;5.75;;
42036;SDS011;30340;52.004;5.908;2023-07-02T04:47:27;12.55;;;6.50;;
42036;SDS011;30340;52.004;5.908;2023-07-02T04:49:53;12.77;;;6.18;;
42036;SDS011;30340;52.004;5.908;2023-07-02T04:52:19;14.43;;;6.25;;
42036;SDS011;30340;52.004;5.908;2023-07-02T04:54:44;15.25;;;6.63;;
42036;SDS011;30340;52.004;5.908;2023-07-02T04:57:10;14.52;;;6.57;;
42036;SDS011;30340;52.004;5.908;2023-07-02T04:59:35;14.70;;;6.22;;
42036;SDS011;30340;52.004;5.908;2023-07-02T05:02:01;13.95;;;5.82;;
42036;SDS011;30340;52.004;5.908;2023-07-02T05:04:27;13.88;;;6.55;;
42036;SDS011;30340;52.004;5.908;2023-07-02T05:06:53;13.02;;;6.13;;
42036;SDS011;30340;52.004;5.908;2023-07-02T05:09:18;11.70;;;6.10;;
42036;SDS011;30340;52.004;5.908;2023-07-02T05:11:44;12.18;;;6.47;;
42036;SDS011;30340;52.004;5.908;2023-07-02T05:14:09;15.55;;;6.28;;
42036;SDS011;30340;52.004;5.908;2023-07-02T05:16:35;11.40;;;6.53;;
42036;SDS011;30340;52.004;5.908;2023-07-02T05:19:00;13.52;;;6.00;;
42036;SDS011;30340;52.004;5.908;2023-07-02T05:21:26;15.02;;;6.93;;
42036;SDS011;30340;52.004;5.908;2023-07-02T05:23:51;11.90;;;5.72;;
42036;SDS011;30340;52.004;5.908;2023-07-02T05:26:17;12.98;;;6.32;;
42036;SDS011;30340;52.004;5.908;2023-07-02T05:28:42;16.73;;;6.93;;
42036;SDS011;30340;52.004;5.908;2023-07-02T05:31:09;13.38;;;6.40;;
42036;SDS011;30340;52.004;5.908;2023-07-02T05:33:35;13.63;;;6.68;;
42036;SDS011;30340;52.004;5.908;2023-07-02T05:36:00;14.40;;;6.25;;
42036;SDS011;30340;52.004;5.908;2023-07-02T05:38:26;11.80;;;5.35;;
42036;SDS011;30340;52.004;5.908;2023-07-02T05:40:52;12.63;;;6.13;;
42036;SDS011;30340;52.004;5.908;2023-07-02T05:43:17;11.85;;;5.97;;
42036;SDS011;30340;52.004;5.908;2023-07-02T05:45:43;13.75;;;6.07;;
42036;SDS011;30340;52.004;5.908;2023-07-02T05:48:09;12.57;;;6.45;;
42036;SDS011;30340;52.004;5.908;2023-07-02T05:50:34;15.55;;;6.82;;
42036;SDS011;30340;52.004;5.908;2023-07-02T05:53:00;14.70;;;6.68;;
42036;SDS011;30340;52.004;5.908;2023-07-02T05:55:26;16.85;;;6.72;;
42036;SDS011;30340;52.004;5.908;2023-07-02T05:57:51;18.73;;;7.15;;
42036;SDS011;30340;52.004;5.908;2023-07-02T06:00:17;13.45;;;6.18;;
42036;SDS011;30340;52.004;5.908;2023-07-02T06:02:42;17.95;;;7.15;;
42036;SDS011;30340;52.004;5.908;2023-07-02T06:05:11;12.90;;;6.35;;
42036;SDS011;30340;52.004;5.908;2023-07-02T06:07:36;13.27;;;5.78;;
42036;SDS011;30340;52.004;5.908;2023-07-02T06:10:02;17.63;;;7.30;;
42036;SDS011;30340;52.004;5.908;2023-07-02T06:12:28;14.23;;;6.50;;
42036;SDS011;30340;52.004;5.908;2023-07-02T06:14:54;12.02;;;6.68;;
42036;SDS011;30340;52.004;5.908;2023-07-02T06:17:20;12.85;;;5.50;;
42036;SDS011;30340;52.004;5.908;2023-07-02T06:19:47;15.07;;;6.53;;
42036;SDS011;30340;52.004;5.908;2023-07-02T06:22:13;11.55;;;5.82;;
42036;SDS011;30340;52.004;5.908;2023-07-02T06:24:38;14.65;;;6.45;;
42036;SDS011;30340;52.004;5.908;2023-07-02T06:27:04;13.70;;;6.00;;
42036;SDS011;30340;52.004;5.908;2023-07-02T06:29:29;14.60;;;6.63;;
42036;SDS011;30340;52.004;5.908;2023-07-02T06:31:55;14.18;;;7.03;;
42036;SDS011;30340;52.004;5.908;2023-07-02T06:34:21;12.73;;;6.05;;
42036;SDS011;30340;52.004;5.908;2023-07-02T06:36:47;13.98;;;6.32;;
42036;SDS011;30340;52.004;5.908;2023-07-02T06:39:13;12.82;;;5.72;;
42036;SDS011;30340;52.004;5.908;2023-07-02T06:41:39;14.32;;;6.63;;
42036;SDS011;30340;52.004;5.908;2023-07-02T06:44:04;13.45;;;6.50;;
42036;SDS011;30340;52.004;5.908;2023-07-02T06:46:30;13.38;;;6.30;;
42036;SDS011;30340;52.004;5.908;2023-07-02T06:48:56;10.40;;;5.20;;
42036;SDS011;30340;52.004;5.908;2023-07-02T06:51:21;11.13;;;5.60;;
42036;SDS011;30340;52.004;5.908;2023-07-02T06:53:47;12.10;;;5.47;;
42036;SDS011;30340;52.004;5.908;2023-07-02T06:56:13;10.63;;;5.40;;
42036;SDS011;30340;52.004;5.908;2023-07-02T06:58:41;13.00;;;5.72;;
42036;SDS011;30340;52.004;5.908;2023-07-02T07:01:07;11.75;;;5.55;;
42036;SDS011;30340;52.004;5.908;2023-07-02T07:03:34;13.57;;;6.05;;
42036;SDS011;30340;52.004;5.908;2023-07-02T07:06:00;11.68;;;5.90;;
42036;SDS011;30340;52.004;5.908;2023-07-02T07:08:26;13.90;;;5.88;;
42036;SDS011;30340;52.004;5.908;2023-07-02T07:10:51;11.90;;;6.13;;
42036;SDS011;30340;52.004;5.908;2023-07-02T07:13:17;11.70;;;5.47;;
42036;SDS011;30340;52.004;5.908;2023-07-02T07:15:42;12.60;;;5.75;;
42036;SDS011;30340;52.004;5.908;2023-07-02T07:18:08;16.27;;;5.65;;
42036;SDS011;30340;52.004;5.908;2023-07-02T07:20:34;9.90;;;5.22;;
42036;SDS011;30340;52.004;5.908;2023-07-02T07:23:02;11.18;;;5.88;;
42036;SDS011;30340;52.004;5.908;2023-07-02T07:25:28;11.50;;;5.57;;
42036;SDS011;30340;52.004;5.908;2023-07-02T07:27:54;15.98;;;6.57;;
42036;SDS011;30340;52.004;5.908;2023-07-02T07:30:20;12.45;;;5.82;;
42036;SDS011;30340;52.004;5.908;2023-07-02T07:32:49;12.90;;;5.85;;
42036;SDS011;30340;52.004;5.908;2023-07-02T07:35:15;9.75;;;5.18;;
42036;SDS011;30340;52.004;5.908;2023-07-02T07:37:42;10.85;;;5.57;;
42036;SDS011;30340;52.004;5.908;2023-07-02T07:40:08;13.98;;;5.95;;
42036;SDS011;30340;52.004;5.908;2023-07-02T07:42:33;9.38;;;5.25;;
42036;SDS011;30340;52.004;5.908;2023-07-02T07:44:59;12.30;;;5.75;;
42036;SDS011;30340;52.004;5.908;2023-07-02T07:47:24;9.13;;;5.20;;
42036;SDS011;30340;52.004;5.908;2023-07-02T07:49:50;11.73;;;5.70;;
42036;SDS011;30340;52.004;5.908;2023-07-02T07:52:16;12.68;;;6.22;;
42036;SDS011;30340;52.004;5.908;2023-07-02T07:54:41;10.57;;;5.38;;
42036;SDS011;30340;52.004;5.908;2023-07-02T07:57:07;8.00;;;4.72;;
42036;SDS011;30340;52.004;5.908;2023-07-02T07:59:32;12.50;;;5.68;;
42036;SDS011;30340;52.004;5.908;2023-07-02T08:01:58;13.65;;;5.90;;
42036;SDS011;30340;52.004;5.908;2023-07-02T08:04:24;10.90;;;5.45;;
42036;SDS011;30340;52.004;5.908;2023-07-02T08:06:49;9.60;;;5.32;;
42036;SDS011;30340;52.004;5.908;2023-07-02T08:09:15;11.05;;;5.60;;
42036;SDS011;30340;52.004;5.908;2023-07-02T08:11:40;12.02;;;5.22;;
42036;SDS011;30340;52.004;5.908;2023-07-02T08:14:06;10.43;;;5.80;;
42036;SDS011;30340;52.004;5.908;2023-07-02T08:16:32;8.65;;;5.15;;
42036;SDS011;30340;52.004;5.908;2023-07-02T08:18:57;11.43;;;4.70;;
42036;SDS011;30340;52.004;5.908;2023-07-02T08:21:23;11.75;;;5.25;;
42036;SDS011;30340;52.004;5.908;2023-07-02T08:23:48;9.00;;;4.50;;
42036;SDS011;30340;52.004;5.908;2023-07-02T08:26:14;9.70;;;5.10;;
42036;SDS011;30340;52.004;5.908;2023-07-02T08:28:40;9.38;;;4.80;;
42036;SDS011;30340;52.004;5.908;2023-07-02T08:31:05;9.07;;;4.60;;
42036;SDS011;30340;52.004;5.908;2023-07-02T08:33:31;10.57;;;4.88;;
42036;SDS011;30340;52.004;5.908;2023-07-02T08:35:57;8.27;;;4.18;;
42036;SDS011;30340;52.004;5.908;2023-07-02T08:38:22;9.40;;;4.47;;
42036;SDS011;30340;52.004;5.908;2023-07-02T08:40:49;14.73;;;5.07;;
42036;SDS011;30340;52.004;5.908;2023-07-02T08:43:14;11.10;;;4.50;;
42036;SDS011;30340;52.004;5.908;2023-07-02T08:45:40;8.93;;;4.78;;
42036;SDS011;30340;52.004;5.908;2023-07-02T08:48:12;8.48;;;4.80;;
42036;SDS011;30340;52.004;5.908;2023-07-02T08:50:38;7.50;;;4.30;;
42036;SDS011;30340;52.004;5.908;2023-07-02T08:53:04;8.60;;;4.45;;
42036;SDS011;30340;52.004;5.908;2023-07-02T08:55:30;8.05;;;4.60;;
42036;SDS011;30340;52.004;5.908;2023-07-02T08:57:56;8.13;;;4.20;;
42036;SDS011;30340;52.004;5.908;2023-07-02T09:00:25;8.45;;;4.60;;
42036;SDS011;30340;52.004;5.908;2023-07-02T09:02:51;8.93;;;5.15;;
42036;SDS011;30340;52.004;5.908;2023-07-02T09:05:17;8.52;;;4.50;;
42036;SDS011;30340;52.004;5.908;2023-07-02T09:07:43;7.50;;;4.53;;
42036;SDS011;30340;52.004;5.908;2023-07-02T09:10:10;8.55;;;4.18;;
42036;SDS011;30340;52.004;5.908;2023-07-02T09:12:36;10.75;;;5.03;;
42036;SDS011;30340;52.004;5.908;2023-07-02T09:15:04;9.30;;;5.10;;
42036;SDS011;30340;52.004;5.908;2023-07-02T09:17:34;8.45;;;4.93;;
42036;SDS011;30340;52.004;5.908;2023-07-02T09:20:04;7.90;;;4.03;;
42036;SDS011;30340;52.004;5.908;2023-07-02T09:22:33;8.95;;;4.47;;
42036;SDS011;30340;52.004;5.908;2023-07-02T09:24:59;7.60;;;4.10;;
42036;SDS011;30340;52.004;5.908;2023-07-02T09:27:36;8.73;;;4.18;;
42036;SDS011;30340;52.004;5.908;2023-07-02T09:30:07;9.30;;;4.85;;
42036;SDS011;30340;52.004;5.908;2023-07-02T09:32:41;9.93;;;4.70;;
42036;SDS011;30340;52.004;5.908;2023-07-02T09:35:07;8.07;;;4.13;;
42036;SDS011;30340;52.004;5.908;2023-07-02T09:37:33;7.72;;;3.92;;
42036;SDS011;30340;52.004;5.908;2023-07-02T09:39:59;7.18;;;4.32;;
42036;SDS011;30340;52.004;5.908;2023-07-02T09:42:26;6.55;;;3.92;;
42036;SDS011;30340;52.004;5.908;2023-07-02T09:44:53;9.43;;;4.07;;
42036;SDS011;30340;52.004;5.908;2023-07-02T09:47:20;9.32;;;3.72;;
42036;SDS011;30340;52.004;5.908;2023-07-02T09:50:02;7.35;;;3.63;;
42036;SDS011;30340;52.004;5.908;2023-07-02T09:52:31;6.63;;;3.70;;
42036;SDS011;30340;52.004;5.908;2023-07-02T09:54:58;8.00;;;4.25;;
42036;SDS011;30340;52.004;5.908;2023-07-02T09:57:24;7.28;;;3.47;;
42036;SDS011;30340;52.004;5.908;2023-07-02T09:59:50;7.20;;;3.58;;
42036;SDS011;30340;52.004;5.908;2023-07-02T10:02:15;6.15;;;3.20;;
42036;SDS011;30340;52.004;5.908;2023-07-02T10:04:42;7.35;;;3.58;;
42036;SDS011;30340;52.004;5.908;2023-07-02T10:07:11;8.90;;;3.58;;
42036;SDS011;30340;52.004;5.908;2023-07-02T10:09:44;5.88;;;3.47;;
42036;SDS011;30340;52.004;5.908;2023-07-02T10:12:21;8.02;;;3.30;;
42036;SDS011;30340;52.004;5.908;2023-07-02T10:14:49;6.80;;;3.55;;
42036;SDS011;30340;52.004;5.908;2023-07-02T10:17:53;5.07;;;3.30;;
42036;SDS011;30340;52.004;5.908;2023-07-02T10:20:19;6.90;;;3.90;;
42036;SDS011;30340;52.004;5.908;2023-07-02T10:23:04;7.15;;;3.50;;
42036;SDS011;30340;52.004;5.908;2023-07-02T10:25:32;5.68;;;3.05;;
42036;SDS011;30340;52.004;5.908;2023-07-02T10:27:59;6.47;;;3.00;;
42036;SDS011;30340;52.004;5.908;2023-07-02T10:33:15;5.95;;;3.22;;
42036;SDS011;30340;52.004;5.908;2023-07-02T10:35:42;7.28;;;3.38;;
42036;SDS011;30340;52.004;5.908;2023-07-02T10:38:13;6.13;;;3.13;;
42036;SDS011;30340;52.004;5.908;2023-07-02T10:40:44;5.00;;;3.17;;
42036;SDS011;30340;52.004;5.908;2023-07-02T10:43:10;4.88;;;2.72;;
42036;SDS011;30340;52.004;5.908;2023-07-02T10:45:36;6.07;;;3.10;;
42036;SDS011;30340;52.004;5.908;2023-07-02T10:48:02;6.10;;;3.20;;
42036;SDS011;30340;52.004;5.908;2023-07-02T10:50:29;7.72;;;3.50;;
42036;SDS011;30340;52.004;5.908;2023-07-02T10:52:57;5.32;;;3.08;;
42036;SDS011;30340;52.004;5.908;2023-07-02T10:55:23;5.50;;;3.28;;
42036;SDS011;30340;52.004;5.908;2023-07-02T10:57:50;6.25;;;3.30;;
42036;SDS011;30340;52.004;5.908;2023-07-02T11:00:27;5.13;;;3.10;;
42036;SDS011;30340;52.004;5.908;2023-07-02T11:02:52;6.68;;;3.40;;
42036;SDS011;30340;52.004;5.908;2023-07-02T11:05:18;4.85;;;3.00;;
42036;SDS011;30340;52.004;5.908;2023-07-02T11:07:44;5.95;;;3.17;;
42036;SDS011;30340;52.004;5.908;2023-07-02T11:10:10;5.75;;;3.10;;
42036;SDS011;30340;52.004;5.908;2023-07-02T11:12:43;5.57;;;3.53;;
42036;SDS011;30340;52.004;5.908;2023-07-02T11:15:12;5.97;;;3.15;;
42036;SDS011;30340;52.004;5.908;2023-07-02T11:17:39;4.47;;;3.05;;
42036;SDS011;30340;52.004;5.908;2023-07-02T11:20:07;4.53;;;3.08;;
42036;SDS011;30340;52.004;5.908;2023-07-02T11:22:34;5.97;;;3.40;;
42036;SDS011;30340;52.004;5.908;2023-07-02T11:25:14;5.25;;;3.20;;
42036;SDS011;30340;52.004;5.908;2023-07-02T11:27:41;5.85;;;3.13;;
42036;SDS011;30340;52.004;5.908;2023-07-02T11:30:08;4.38;;;2.63;;
42036;SDS011;30340;52.004;5.908;2023-07-02T11:32:50;6.63;;;3.00;;
42036;SDS011;30340;52.004;5.908;2023-07-02T11:35:17;6.07;;;3.13;;
42036;SDS011;30340;52.004;5.908;2023-07-02T11:37:43;4.97;;;2.97;;
42036;SDS011;30340;52.004;5.908;2023-07-02T11:40:10;5.20;;;3.00;;
42036;SDS011;30340;52.004;5.908;2023-07-02T11:42:36;5.13;;;2.97;;
42036;SDS011;30340;52.004;5.908;2023-07-02T11:45:03;6.70;;;2.92;;
42036;SDS011;30340;52.004;5.908;2023-07-02T11:47:29;5.70;;;3.05;;
42036;SDS011;30340;52.004;5.908;2023-07-02T11:49:54;5.72;;;3.00;;
42036;SDS011;30340;52.004;5.908;2023-07-02T11:52:20;5.45;;;3.30;;
42036;SDS011;30340;52.004;5.908;2023-07-02T11:54:46;5.93;;;2.88;;
42036;SDS011;30340;52.004;5.908;2023-07-02T11:57:12;4.68;;;2.58;;
42036;SDS011;30340;52.004;5.908;2023-07-02T11:59:37;5.47;;;3.05;;
42036;SDS011;30340;52.004;5.908;2023-07-02T12:02:03;4.30;;;2.60;;
42036;SDS011;30340;52.004;5.908;2023-07-02T12:04:29;5.38;;;3.10;;
42036;SDS011;30340;52.004;5.908;2023-07-02T12:06:55;4.95;;;3.00;;
42036;SDS011;30340;52.004;5.908;2023-07-02T12:09:20;5.07;;;2.95;;
42036;SDS011;30340;52.004;5.908;2023-07-02T12:11:46;4.78;;;2.78;;
42036;SDS011;30340;52.004;5.908;2023-07-02T12:14:12;6.38;;;3.10;;
42036;SDS011;30340;52.004;5.908;2023-07-02T12:16:38;5.40;;;2.83;;
42036;SDS011;30340;52.004;5.908;2023-07-02T12:19:03;5.50;;;2.92;;
42036;SDS011;30340;52.004;5.908;2023-07-02T12:21:29;4.05;;;2.90;;
42036;SDS011;30340;52.004;5.908;2023-07-02T12:23:54;4.82;;;3.30;;
42036;SDS011;30340;52.004;5.908;2023-07-02T12:26:20;4.80;;;3.08;;
42036;SDS011;30340;52.004;5.908;2023-07-02T12:28:46;3.72;;;2.75;;
42036;SDS011;30340;52.004;5.908;2023-07-02T12:31:11;6.85;;;3.65;;
42036;SDS011;30340;52.004;5.908;2023-07-02T12:33:38;6.82;;;3.50;;
42036;SDS011;30340;52.004;5.908;2023-07-02T12:36:04;5.47;;;2.90;;
42036;SDS011;30340;52.004;5.908;2023-07-02T12:38:29;5.82;;;3.30;;
42036;SDS011;30340;52.004;5.908;2023-07-02T12:40:55;4.07;;;3.05;;
42036;SDS011;30340;52.004;5.908;2023-07-02T12:43:21;4.82;;;2.80;;
42036;SDS011;30340;52.004;5.908;2023-07-02T12:45:46;6.35;;;3.30;;
42036;SDS011;30340;52.004;5.908;2023-07-02T12:48:12;5.20;;;3.03;;
42036;SDS011;30340;52.004;5.908;2023-07-02T12:50:38;5.03;;;3.35;;
42036;SDS011;30340;52.004;5.908;2023-07-02T12:53:04;5.20;;;3.25;;
42036;SDS011;30340;52.004;5.908;2023-07-02T12:55:30;6.45;;;3.40;;
42036;SDS011;30340;52.004;5.908;2023-07-02T12:57:55;5.63;;;3.08;;
42036;SDS011;30340;52.004;5.908;2023-07-02T13:00:21;5.05;;;3.00;;
42036;SDS011;30340;52.004;5.908;2023-07-02T13:02:48;6.53;;;2.80;;
42036;SDS011;30340;52.004;5.908;2023-07-02T13:05:14;6.05;;;3.38;;
42036;SDS011;30340;52.004;5.908;2023-07-02T13:07:39;5.18;;;2.75;;
42036;SDS011;30340;52.004;5.908;2023-07-02T13:10:05;5.15;;;2.97;;
42036;SDS011;30340;52.004;5.908;2023-07-02T13:12:31;4.93;;;3.03;;
42036;SDS011;30340;52.004;5.908;2023-07-02T13:14:57;4.93;;;2.85;;
42036;SDS011;30340;52.004;5.908;2023-07-02T13:17:23;5.78;;;3.08;;
42036;SDS011;30340;52.004;5.908;2023-07-02T13:19:49;4.93;;;2.60;;
42036;SDS011;30340;52.004;5.908;2023-07-02T13:22:14;6.75;;;3.10;;
42036;SDS011;30340;52.004;5.908;2023-07-02T13:24:40;6.78;;;3.30;;
42036;SDS011;30340;52.004;5.908;2023-07-02T13:27:07;5.80;;;2.70;;
42036;SDS011;30340;52.004;5.908;2023-07-02T13:29:37;5.25;;;3.17;;
42036;SDS011;30340;52.004;5.908;2023-07-02T13:32:03;6.05;;;3.38;;
42036;SDS011;30340;52.004;5.908;2023-07-02T13:34:29;5.03;;;3.55;;
42036;SDS011;30340;52.004;5.908;2023-07-02T13:36:54;5.85;;;2.92;;
42036;SDS011;30340;52.004;5.908;2023-07-02T13:39:20;7.15;;;3.33;;
42036;SDS011;30340;52.004;5.908;2023-07-02T13:41:46;4.25;;;3.05;;
42036;SDS011;30340;52.004;5.908;2023-07-02T13:44:12;5.25;;;3.05;;
42036;SDS011;30340;52.004;5.908;2023-07-02T13:46:37;5.60;;;3.55;;
42036;SDS011;30340;52.004;5.908;2023-07-02T13:49:03;7.13;;;3.45;;
42036;SDS011;30340;52.004;5.908;2023-07-02T13:51:28;5.45;;;3.00;;
42036;SDS011;30340;52.004;5.908;2023-07-02T13:53:54;5.80;;;2.97;;
42036;SDS011;30340;52.004;5.908;2023-07-02T13:56:20;5.25;;;2.90;;
42036;SDS011;30340;52.004;5.908;2023-07-02T13:58:46;5.60;;;3.40;;
42036;SDS011;30340;52.004;5.908;2023-07-02T14:01:21;5.38;;;3.22;;
42036;SDS011;30340;52.004;5.908;2023-07-02T14:03:48;6.88;;;3.40;;
42036;SDS011;30340;52.004;5.908;2023-07-02T14:06:13;6.88;;;3.15;;
42036;SDS011;30340;52.004;5.908;2023-07-02T14:08:40;5.95;;;3.20;;
42036;SDS011;30340;52.004;5.908;2023-07-02T14:11:06;5.65;;;3.30;;
42036;SDS011;30340;52.004;5.908;2023-07-02T14:13:32;5.43;;;3.10;;
42036;SDS011;30340;52.004;5.908;2023-07-02T14:15:57;5.32;;;3.30;;
42036;SDS011;30340;52.004;5.908;2023-07-02T14:18:23;6.00;;;3.13;;
42036;SDS011;30340;52.004;5.908;2023-07-02T14:20:49;4.72;;;2.72;;
42036;SDS011;30340;52.004;5.908;2023-07-02T14:23:15;4.82;;;3.00;;
42036;SDS011;30340;52.004;5.908;2023-07-02T14:25:40;6.30;;;3.30;;
42036;SDS011;30340;52.004;5.908;2023-07-02T14:28:06;4.78;;;2.90;;
42036;SDS011;30340;52.004;5.908;2023-07-02T14:30:32;5.90;;;3.20;;
42036;SDS011;30340;52.004;5.908;2023-07-02T14:32:57;5.68;;;3.00;;
42036;SDS011;30340;52.004;5.908;2023-07-02T14:35:23;6.45;;;3.22;;
42036;SDS011;30340;52.004;5.908;2023-07-02T14:37:53;6.78;;;3.28;;
42036;SDS011;30340;52.004;5.908;2023-07-02T14:40:19;6.07;;;3.58;;
42036;SDS011;30340;52.004;5.908;2023-07-02T14:42:45;5.88;;;2.70;;
42036;SDS011;30340;52.004;5.908;2023-07-02T14:45:11;7.47;;;3.70;;